Time;durP1;ratioP1;P1;durP2;ratioP2;P2;SDS_P1;SDS_P2;PMS_P1;PMS_P2;Temp;Humidity;BMP_temperature;BMP_pressure;BME280_temperature;BME280_humidity;BME280_pressure;Samples;Min_cycle;Max_cycle;Signal;HPM_P1;HPM_P2
2024/02/16 00:02:32;;;;;;;5.35;2.10;;;;;;;9.63;64.58;99649.00;10226646;28;20047;-63
2024/02/16 00:07:34;;;;;;;4.68;2.10;;;;;;;9.71;64.30;99643.34;10225937;28;20418;-63
2024/02/16 00:12:36;;;;;;;3.22;2.05;;;;;;;9.67;64.62;99638.44;10224337;28;20082;-63
2024/02/16 00:17:38;;;;;;;4.82;2.65;;;;;;;9.77;64.34;99632.53;10223908;28;20156;-63
2024/02/16 00:22:41;;;;;;;5.43;1.95;;;;;;;9.90;64.33;99637.84;10217611;28;20097;-63
2024/02/16 00:27:43;;;;;;;5.65;2.25;;;;;;;9.80;64.15;99629.75;10222767;28;20204;-64
2024/02/16 00:32:45;;;;;;;5.78;2.35;;;;;;;9.81;64.42;99631.41;10221715;28;20081;-63
2024/02/16 00:37:47;;;;;;;3.83;2.10;;;;;;;9.83;64.40;99626.09;10223253;28;20075;-63
2024/02/16 00:42:49;;;;;;;4.57;2.13;;;;;;;9.86;64.43;99626.75;10221267;28;20051;-63
2024/02/16 00:47:51;;;;;;;4.50;2.33;;;;;;;9.75;64.26;99621.34;10221991;28;20043;-63
2024/02/16 00:52:53;;;;;;;6.10;2.80;;;;;;;9.69;64.32;99620.91;10224621;28;20063;-63
2024/02/16 00:57:56;;;;;;;6.07;2.58;;;;;;;9.61;64.44;99623.91;10223227;29;20058;-63
2024/02/16 01:02:58;;;;;;;5.55;2.95;;;;;;;9.75;64.56;99610.06;10220819;28;20155;-63
2024/02/16 01:08:00;;;;;;;4.00;2.28;;;;;;;9.83;64.45;99607.81;10220845;28;20059;-63
2024/02/16 01:13:03;;;;;;;5.05;2.58;;;;;;;9.75;64.25;99607.47;10223776;28;20564;-64
2024/02/16 01:18:05;;;;;;;3.97;1.80;;;;;;;9.62;64.46;99612.56;10222462;29;20065;-63
2024/02/16 01:23:07;;;;;;;4.13;2.40;;;;;;;9.64;64.34;99621.97;10223175;28;20523;-63
2024/02/16 01:28:12;;;;;;;2.53;1.52;;;;;;;9.65;64.41;99620.19;10223921;28;20210;-63
2024/02/16 01:33:14;;;;;;;5.55;2.33;;;;;;;9.60;64.38;99615.28;10222360;29;20048;-63
2024/02/16 01:38:16;;;;;;;5.10;1.70;;;;;;;9.64;64.54;99623.75;10222356;28;20055;-63
2024/02/16 01:43:20;;;;;;;2.67;1.48;;;;;;;9.68;64.47;99621.81;10226390;28;20062;-63
2024/02/16 01:48:22;;;;;;;5.45;1.77;;;;;;;9.71;64.49;99622.44;10229129;28;20134;-63
2024/02/16 01:53:24;;;;;;;5.40;2.50;;;;;;;9.70;64.64;99622.56;10228130;28;20389;-63
2024/02/16 01:58:26;;;;;;;4.22;1.80;;;;;;;9.68;64.51;99622.66;10229377;28;20063;-63
2024/02/16 02:03:29;;;;;;;2.60;1.70;;;;;;;9.71;64.48;99613.81;10227383;28;20058;-63
2024/02/16 02:08:31;;;;;;;4.30;1.90;;;;;;;9.60;64.65;99610.03;10229369;29;20031;-63
2024/02/16 02:13:33;;;;;;;3.30;1.67;;;;;;;9.67;64.55;99609.69;10228358;28;20047;-63
2024/02/16 02:18:35;;;;;;;2.28;1.60;;;;;;;9.64;64.58;99610.69;10229423;28;20047;-61
2024/02/16 02:23:37;;;;;;;6.35;2.28;;;;;;;9.67;64.73;99618.34;10228594;28;20035;-61
2024/02/16 02:28:39;;;;;;;2.72;1.52;;;;;;;9.59;64.93;99621.41;10228550;28;20047;-62
2024/02/16 02:33:41;;;;;;;6.40;2.10;;;;;;;9.53;65.27;99610.50;10228802;28;20506;-61
2024/02/16 02:38:44;;;;;;;4.82;1.65;;;;;;;9.66;65.06;99606.25;10228910;28;20048;-61
2024/02/16 02:43:46;;;;;;;3.60;1.80;;;;;;;9.75;64.97;99610.88;10227515;28;20079;-61
2024/02/16 02:48:48;;;;;;;3.47;1.70;;;;;;;9.81;65.02;99599.25;10225862;28;20130;-61
2024/02/16 02:53:53;;;;;;;4.47;1.50;;;;;;;9.71;65.31;99604.19;10224943;28;20409;-61
2024/02/16 02:58:55;;;;;;;3.55;1.80;;;;;;;9.68;65.38;99598.31;10229194;28;20568;-61
2024/02/16 03:03:59;;;;;;;3.50;1.70;;;;;;;9.68;65.41;99596.53;10227833;28;20043;-62
2024/02/16 03:09:02;;;;;;;3.70;1.95;;;;;;;9.65;65.49;99587.09;10226497;28;20047;-62
2024/02/16 03:14:05;;;;;;;12.15;1.90;;;;;;;9.68;65.46;99587.88;10228078;28;20043;-62
2024/02/16 03:19:08;;;;;;;7.07;1.85;;;;;;;9.65;65.65;99574.03;10228055;28;20523;-62
2024/02/16 03:24:11;;;;;;;2.60;1.50;;;;;;;9.46;66.13;99603.97;10227066;28;20400;-62
2024/02/16 03:29:13;;;;;;;3.65;1.85;;;;;;;9.11;66.33;99611.28;10227520;28;20050;-61
2024/02/16 03:34:15;;;;;;;3.83;1.75;;;;;;;9.25;66.38;99626.97;10227867;28;20043;-62
2024/02/16 03:39:20;;;;;;;2.45;1.50;;;;;;;9.35;66.25;99629.88;10227887;28;20047;-61
2024/02/16 03:44:22;;;;;;;2.60;1.88;;;;;;;9.24;66.55;99620.06;10226992;28;20051;-61
2024/02/16 03:49:25;;;;;;;2.65;1.63;;;;;;;9.35;66.58;99622.88;10226699;28;20047;-62
2024/02/16 03:54:27;;;;;;;2.92;1.75;;;;;;;9.48;66.43;99623.81;10226819;29;20039;-62
2024/02/16 03:59:29;;;;;;;2.78;1.60;;;;;;;9.58;66.43;99613.69;10225945;28;20101;-62
2024/02/16 04:04:31;;;;;;;4.07;1.83;;;;;;;9.65;66.18;99620.19;10225438;28;20052;-61
2024/02/16 04:09:34;;;;;;;4.57;1.85;;;;;;;9.61;66.43;99605.63;10225545;28;20203;-61
2024/02/16 04:14:36;;;;;;;2.60;1.45;;;;;;;9.62;66.44;99618.63;10222967;28;20043;-62
2024/02/16 04:19:38;;;;;;;3.70;1.73;;;;;;;9.60;66.19;99615.28;10227119;28;20055;-63
2024/02/16 04:24:40;;;;;;;3.10;1.55;;;;;;;9.38;66.48;99622.69;10226014;28;20126;-63
2024/02/16 04:29:42;;;;;;;4.53;1.88;;;;;;;9.40;66.60;99622.63;10226239;28;20495;-64
2024/02/16 04:34:44;;;;;;;2.85;1.70;;;;;;;9.50;66.61;99624.56;10226272;28;20075;-63
2024/02/16 04:39:47;;;;;;;5.40;1.83;;;;;;;9.45;66.71;99628.38;10224919;28;20487;-63
2024/02/16 04:44:48;;;;;;;4.63;1.83;;;;;;;9.44;66.76;99645.81;10225033;28;20169;-63
2024/02/16 04:49:51;;;;;;;5.30;1.85;;;;;;;9.47;66.92;99645.63;10225020;28;20054;-63
2024/02/16 04:54:53;;;;;;;4.80;1.80;;;;;;;9.48;66.90;99623.00;10224942;28;20043;-63
2024/02/16 04:59:54;;;;;;;5.95;1.60;;;;;;;9.53;66.89;99620.94;10224855;28;20094;-63
2024/02/16 05:04:57;;;;;;;3.58;2.05;;;;;;;9.54;66.69;99602.56;10196798;28;20047;-63
2024/02/16 05:10:08;;;;;;;4.90;2.30;;;;;;;9.37;67.12;99612.34;10225306;28;20058;-64
2024/02/16 05:15:10;;;;;;;5.93;2.08;;;;;;;9.16;67.28;99600.56;10238693;28;20506;-63
2024/02/16 05:20:15;;;;;;;3.72;1.90;;;;;;;9.04;67.54;99607.34;10225307;28;20142;-62
2024/02/16 05:25:18;;;;;;;4.50;2.13;;;;;;;9.14;67.39;99599.81;10224139;28;20483;-62
2024/02/16 05:30:20;;;;;;;5.45;1.85;;;;;;;9.05;67.16;99592.53;10218031;28;20031;-63
2024/02/16 05:35:23;;;;;;;8.20;1.90;;;;;;;8.85;67.31;99602.34;10223600;28;20044;-62
2024/02/16 05:40:27;;;;;;;11.10;2.60;;;;;;;8.78;67.29;99606.25;10223739;28;20575;-62
2024/02/16 05:45:29;;;;;;;2.90;1.60;;;;;;;8.77;67.38;99614.19;10223635;28;20058;-62
2024/02/16 05:50:31;;;;;;;7.65;1.88;;;;;;;8.75;67.38;99603.81;10253594;28;20055;-62
2024/02/16 05:55:34;;;;;;;5.50;2.35;;;;;;;8.72;67.42;99600.56;10224744;28;20566;-62
2024/02/16 06:00:36;;;;;;;4.05;1.60;;;;;;;8.76;67.28;99604.66;10220851;28;20472;-63
2024/02/16 06:05:40;;;;;;;3.30;1.88;;;;;;;8.69;67.45;99601.56;10223921;28;20514;-63
2024/02/16 06:10:42;;;;;;;3.97;2.47;;;;;;;8.50;67.87;99611.38;10223348;28;20048;-63
2024/02/16 06:15:44;;;;;;;3.15;1.90;;;;;;;8.37;68.08;99607.75;10225354;28;20053;-63
2024/02/16 06:20:46;;;;;;;2.75;1.65;;;;;;;8.27;68.48;99613.56;10224078;28;20493;-63
2024/02/16 06:25:48;;;;;;;5.25;2.22;;;;;;;8.38;68.55;99606.00;10223061;28;20051;-62
2024/02/16 06:30:50;;;;;;;2.78;1.45;;;;;;;8.58;68.21;99613.53;10229085;28;20081;-63
2024/02/16 06:35:52;;;;;;;3.30;1.90;;;;;;;8.66;68.14;99625.22;10230418;28;20046;-63
2024/02/16 06:40:54;;;;;;;2.47;1.58;;;;;;;8.68;67.95;99635.53;10231676;28;20134;-62
2024/02/16 06:45:57;;;;;;;2.72;1.83;;;;;;;8.69;67.77;99645.88;10228073;28;20419;-62
2024/02/16 06:50:59;;;;;;;2.58;1.63;;;;;;;8.81;67.50;99649.59;10228458;28;20485;-63
2024/02/16 06:56:01;;;;;;;7.07;2.65;;;;;;;8.73;67.89;99651.75;10229612;28;20045;-62
2024/02/16 07:01:03;;;;;;;4.95;2.65;;;;;;;8.85;67.74;99662.34;10223987;28;20134;-62
2024/02/16 07:06:09;;;;;;;4.15;2.00;;;;;;;9.09;67.47;99675.75;10227935;28;20142;-63
2024/02/16 07:11:12;;;;;;;3.13;1.90;;;;;;;9.21;67.45;99677.66;10229357;28;20055;-64
2024/02/16 07:16:15;;;;;;;5.20;2.30;;;;;;;9.34;67.31;99672.56;10227904;28;20043;-63
2024/02/16 07:21:20;;;;;;;4.47;1.70;;;;;;;9.36;67.26;99683.75;10228469;28;20491;-63
2024/02/16 07:26:22;;;;;;;6.35;1.90;;;;;;;9.52;67.09;99692.34;10229608;28;20055;-63
2024/02/16 07:31:24;;;;;;;4.53;2.55;;;;;;;9.55;66.81;99692.16;10228760;28;20047;-62
2024/02/16 07:36:26;;;;;;;3.90;2.35;;;;;;;9.50;66.90;99705.47;10227024;28;20071;-63
2024/02/16 07:41:28;;;;;;;4.28;2.40;;;;;;;9.47;66.64;99702.22;10226986;28;20503;-62
2024/02/16 07:46:30;;;;;;;3.55;1.92;;;;;;;9.41;66.75;99703.44;10227992;28;20039;-62
2024/02/16 07:51:37;;;;;;;4.25;1.88;;;;;;;9.46;67.09;99692.72;10227432;29;20093;-62
2024/02/16 07:56:39;;;;;;;5.55;2.28;;;;;;;9.58;67.00;99699.81;10227567;28;20047;-64
2024/02/16 08:01:44;;;;;;;6.90;2.30;;;;;;;9.41;67.04;99716.47;10228902;28;20137;-59
2024/02/16 08:06:46;;;;;;;4.80;2.42;;;;;;;9.30;67.04;99718.84;10227355;28;20201;-58
2024/02/16 08:11:48;;;;;;;2.95;1.90;;;;;;;9.51;67.21;99720.22;10227725;28;20105;-59
2024/02/16 08:16:50;;;;;;;4.40;2.35;;;;;;;9.71;66.96;99726.09;10228510;28;20140;-59
2024/02/16 08:22:08;;;;;;;8.23;3.60;;;;;;;9.84;66.83;99733.09;10226218;28;20046;-58
2024/02/16 08:27:12;;;;;;;5.18;2.95;;;;;;;9.78;66.80;99737.84;10225938;28;20059;-58
2024/02/16 08:32:17;;;;;;;3.72;2.22;;;;;;;9.81;66.73;99741.09;10226409;28;20045;-59
2024/02/16 08:37:19;;;;;;;2.97;1.90;;;;;;;9.91;66.71;99747.44;10227112;28;20058;-58
2024/02/16 08:42:22;;;;;;;4.75;2.58;;;;;;;10.08;66.66;99747.28;10225920;28;20070;-58
2024/02/16 08:47:24;;;;;;;4.82;2.22;;;;;;;10.26;66.79;99742.69;10226460;28;20090;-58
2024/02/16 08:52:27;;;;;;;6.10;2.40;;;;;;;10.31;66.34;99740.66;10223538;28;20140;-58
2024/02/16 08:57:28;;;;;;;4.63;2.20;;;;;;;10.41;66.60;99744.38;10222117;28;20078;-58
2024/02/16 09:02:31;;;;;;;3.75;2.45;;;;;;;10.55;66.34;99749.59;10223848;28;20169;-58
2024/02/16 09:07:32;;;;;;;5.18;2.00;;;;;;;10.71;66.16;99749.47;10229238;28;20380;-58
2024/02/16 09:12:35;;;;;;;7.68;2.88;;;;;;;10.95;66.09;99753.97;10227278;28;20039;-58
2024/02/16 09:17:37;;;;;;;6.07;3.53;;;;;;;11.02;66.04;99765.75;10228397;28;20077;-59
2024/02/16 09:22:41;;;;;;;5.35;2.60;;;;;;;11.06;66.09;99766.41;10226772;28;20051;-59
2024/02/16 09:27:48;;;;;;;7.95;3.15;;;;;;;11.23;65.89;99766.19;10224877;28;20043;-59
2024/02/16 09:32:50;;;;;;;6.75;2.63;;;;;;;11.38;65.66;99759.09;10223216;28;20066;-59
2024/02/16 09:37:52;;;;;;;4.70;2.58;;;;;;;11.47;65.33;99763.72;10222850;28;21168;-59
2024/02/16 09:42:54;;;;;;;4.88;2.40;;;;;;;11.55;65.52;99769.28;10222174;28;20057;-59
2024/02/16 09:47:58;;;;;;;3.72;2.17;;;;;;;11.67;65.32;99776.34;10224514;28;20051;-59
2024/02/16 09:53:09;;;;;;;3.03;1.90;;;;;;;11.68;65.36;99776.22;10224971;28;20063;-59
2024/02/16 09:58:17;;;;;;;3.83;2.40;;;;;;;11.78;65.24;99786.94;10225483;28;20067;-59
2024/02/16 10:03:30;;;;;;;6.47;2.75;;;;;;;11.93;65.03;99799.00;10222919;28;20043;-60
2024/02/16 10:08:34;;;;;;;3.92;2.38;;;;;;;12.06;64.97;99792.00;10226201;28;20047;-59
2024/02/16 10:13:36;;;;;;;4.72;2.50;;;;;;;12.24;64.91;99801.22;10226778;28;20842;-59
2024/02/16 10:18:39;;;;;;;6.43;3.00;;;;;;;12.49;64.58;99801.25;10227871;28;20396;-59
2024/02/16 10:23:41;;;;;;;5.68;3.05;;;;;;;12.74;64.25;99809.06;10230387;28;20051;-59
2024/02/16 10:28:46;;;;;;;6.13;3.05;;;;;;;12.84;64.05;99810.09;10229031;28;20047;-59
2024/02/16 10:33:49;;;;;;;5.40;2.60;;;;;;;12.93;63.92;99809.47;10232203;28;20142;-59
2024/02/16 10:38:54;;;;;;;4.85;2.20;;;;;;;13.12;63.42;99810.75;10234694;28;20055;-59
2024/02/16 10:43:56;;;;;;;5.25;2.20;;;;;;;13.30;63.59;99805.03;10229957;28;20055;-59
2024/02/16 10:48:59;;;;;;;3.35;1.92;;;;;;;13.49;63.04;99815.06;10231512;28;20490;-60
2024/02/16 10:54:01;;;;;;;3.75;1.98;;;;;;;13.64;62.73;99816.53;10229320;28;20255;-59
2024/02/16 10:59:05;;;;;;;3.97;2.42;;;;;;;13.66;62.82;99818.09;10231285;28;20117;-59
2024/02/16 11:04:11;;;;;;;4.65;2.50;;;;;;;13.84;62.84;99815.88;10226628;28;20054;-60
2024/02/16 11:09:38;;;;;;;4.25;2.40;;;;;;;14.13;62.24;99808.44;10231245;28;20043;-59
2024/02/16 11:14:54;;;;;;;4.97;1.92;;;;;;;14.29;61.73;99801.03;10234991;28;20051;-59
2024/02/16 11:20:00;;;;;;;4.25;2.22;;;;;;;14.09;62.38;99805.19;10238853;28;20499;-57
2024/02/16 11:25:05;;;;;;;5.43;2.50;;;;;;;13.88;62.34;99813.88;10234819;28;20152;-58
2024/02/16 11:30:10;;;;;;;5.72;2.70;;;;;;;13.94;62.50;99806.38;10230264;28;20047;-57
2024/02/16 11:35:12;;;;;;;4.30;2.00;;;;;;;14.16;61.78;99819.56;10230629;28;21109;-59
2024/02/16 11:40:14;;;;;;;4.47;2.47;;;;;;;14.39;62.04;99808.09;10232356;28;20055;-57
2024/02/16 11:45:16;;;;;;;4.65;2.55;;;;;;;14.62;61.72;99819.50;10234685;28;20808;-59
2024/02/16 11:50:19;;;;;;;8.65;2.60;;;;;;;14.77;61.80;99817.47;10231306;28;20047;-60
2024/02/16 11:55:21;;;;;;;5.53;2.40;;;;;;;14.83;61.84;99814.38;10228528;28;20078;-60
2024/02/16 12:00:23;;;;;;;5.57;2.53;;;;;;;14.91;61.38;99804.06;10225309;28;20089;-60
2024/02/16 12:05:25;;;;;;;6.15;1.95;;;;;;;15.07;61.19;99807.13;10224224;28;20077;-50
2024/02/16 12:10:28;;;;;;;3.28;1.60;;;;;;;15.27;60.79;99803.72;10224914;28;20058;-59
2024/02/16 12:15:31;;;;;;;3.28;1.80;;;;;;;15.39;59.97;99797.47;10226280;28;20864;-59
2024/02/16 12:20:32;;;;;;;3.60;1.45;;;;;;;15.75;59.85;99791.00;10222442;28;20055;-59
2024/02/16 12:25:34;;;;;;;4.70;1.83;;;;;;;15.94;59.57;99796.41;10226329;28;20568;-59
2024/02/16 12:30:37;;;;;;;6.07;1.77;;;;;;;16.08;59.45;99794.28;10225488;28;20055;-58
2024/02/16 12:35:39;;;;;;;7.40;1.60;;;;;;;16.15;58.66;99784.91;10222781;28;20038;-58
2024/02/16 12:40:41;;;;;;;2.60;1.42;;;;;;;16.24;58.92;99789.38;10218029;28;20047;-58
2024/02/16 12:45:43;;;;;;;5.88;1.60;;;;;;;16.36;58.60;99786.66;10226436;28;20055;-58
2024/02/16 12:50:47;;;;;;;2.00;1.35;;;;;;;16.41;58.54;99787.09;10225182;28;20054;-58
2024/02/16 12:55:49;;;;;;;3.50;1.63;;;;;;;16.35;58.35;99790.25;10222593;28;20141;-58
2024/02/16 13:00:51;;;;;;;2.83;1.30;;;;;;;16.39;58.48;99787.22;10224415;28;20141;-58
2024/02/16 13:05:53;;;;;;;6.82;2.00;;;;;;;16.22;58.50;99796.59;10224321;28;20047;-58
2024/02/16 13:10:56;;;;;;;2.70;1.40;;;;;;;16.05;58.85;99801.63;10225481;28;20071;-58
2024/02/16 13:15:58;;;;;;;8.35;1.80;;;;;;;15.79;59.29;99819.66;10221692;28;20054;-59
2024/02/16 13:21:01;;;;;;;6.85;1.83;;;;;;;15.48;59.88;99824.88;10223114;28;20054;-58
2024/02/16 13:26:04;;;;;;;7.03;2.25;;;;;;;15.43;60.12;99834.00;10226494;28;20105;-58
2024/02/16 13:31:06;;;;;;;6.82;1.50;;;;;;;15.39;59.82;99847.53;10218529;28;20051;-58
2024/02/16 13:41:59;;;;;;;;;;;;;;;14.61;62.13;99846.81;10542324;27;20916;-57
2024/02/16 13:47:01;;;;;;;2.97;1.50;;;;;;;14.67;61.53;99843.69;10545922;28;20028;-57
2024/02/16 13:52:03;;;;;;;4.10;1.42;;;;;;;14.76;61.43;99857.94;10537766;28;20036;-57
2024/02/16 14:09:28;;;;;;;2.63;1.65;;;;;;;13.94;62.50;99879.16;10333153;28;20614;-58
2024/02/16 14:14:35;;;;;;;5.35;2.33;;;;;;;14.23;62.18;99876.00;10331099;28;20129;-58
2024/02/16 14:19:39;;;;;;;2.35;1.25;;;;;;;14.27;61.83;99884.50;10332991;28;20046;-58
2024/02/16 14:24:41;;;;;;;4.15;1.95;;;;;;;14.37;61.96;99899.47;10335040;28;20158;-58
2024/02/16 14:29:43;;;;;;;5.45;2.28;;;;;;;14.32;61.96;99906.91;10333862;28;20038;-58
2024/02/16 14:34:45;;;;;;;5.93;2.22;;;;;;;14.32;62.11;99909.53;10334226;28;20049;-58
2024/02/16 14:39:47;;;;;;;19.25;7.35;;;;;;;14.36;62.02;99908.34;10333861;28;20049;-58
2024/02/16 14:44:50;;;;;;;15.52;6.25;;;;;;;14.28;61.97;99908.06;10320658;28;20057;-58
2024/02/16 14:49:56;;;;;;;9.32;3.08;;;;;;;14.24;62.40;99913.69;10338278;28;20046;-58
2024/02/16 14:54:59;;;;;;;6.35;1.98;;;;;;;14.21;62.58;99925.25;10318102;28;20050;-58
2024/02/16 15:00:02;;;;;;;3.33;1.70;;;;;;;14.22;62.88;99928.75;10320295;28;20489;-58
2024/02/16 15:05:06;;;;;;;4.47;2.53;;;;;;;14.06;63.33;99931.69;10332569;28;20725;-59
2024/02/16 15:10:10;;;;;;;6.45;2.38;;;;;;;13.85;63.96;99940.28;10337551;28;20077;-60
2024/02/16 15:15:13;;;;;;;4.43;3.10;;;;;;;13.81;63.98;99949.34;10336299;28;20141;-59
2024/02/16 15:20:15;;;;;;;8.05;4.18;;;;;;;13.66;64.78;99932.88;10317314;28;20082;-59
2024/02/16 15:25:17;;;;;;;9.18;4.13;;;;;;;13.59;64.99;99942.19;10309008;28;20065;-59
2024/02/16 15:30:20;;;;;;;8.07;4.15;;;;;;;13.46;65.32;99951.88;10309236;28;20046;-59
2024/02/16 15:35:23;;;;;;;5.13;3.22;;;;;;;13.34;66.01;99964.06;10307887;28;20046;-59
2024/02/16 15:40:26;;;;;;;8.05;3.03;;;;;;;13.19;66.57;99974.81;10312559;28;20038;-58
2024/02/16 15:45:29;;;;;;;7.05;4.00;;;;;;;13.08;67.10;99972.94;10292725;28;20569;-58
2024/02/16 15:50:31;;;;;;;11.20;6.38;;;;;;;13.03;67.43;99971.59;10309854;28;20072;-58
2024/02/16 15:55:35;;;;;;;10.50;5.45;;;;;;;12.85;68.30;99966.63;10308564;28;20058;-58
2024/02/16 16:00:37;;;;;;;7.32;3.20;;;;;;;13.32;67.49;99973.84;10308263;28;20054;-55
2024/02/16 16:05:40;;;;;;;4.82;2.92;;;;;;;13.76;66.87;99975.97;10306618;28;20050;-56
2024/02/16 16:10:42;;;;;;;4.30;2.28;;;;;;;13.74;65.84;99976.06;10303556;28;20161;-58
2024/02/16 16:15:44;;;;;;;2.78;1.63;;;;;;;13.24;67.36;99993.72;10304035;28;20516;-58
2024/02/16 16:20:47;;;;;;;2.90;1.60;;;;;;;13.00;67.98;99990.16;10293475;28;20574;-58
2024/02/16 16:25:49;;;;;;;5.47;1.80;;;;;;;12.88;68.55;99992.66;10298436;28;20050;-58
2024/02/16 16:30:51;;;;;;;3.78;1.52;;;;;;;12.78;69.14;99999.47;10299294;28;20074;-58
2024/02/16 16:35:53;;;;;;;5.10;2.08;;;;;;;12.78;69.15;100007.34;10302790;28;20452;-57
2024/02/16 16:40:55;;;;;;;3.30;1.90;;;;;;;12.72;69.29;100013.03;10309394;28;20038;-57
2024/02/16 16:45:57;;;;;;;3.72;1.65;;;;;;;12.71;69.30;100011.34;10304714;28;20141;-58
2024/02/16 16:50:59;;;;;;;4.45;1.65;;;;;;;12.72;69.80;100026.13;10299258;28;20039;-59
2024/02/16 16:56:01;;;;;;;3.00;1.42;;;;;;;12.70;69.60;100027.22;10303398;28;20112;-58
2024/02/16 17:01:03;;;;;;;2.33;1.48;;;;;;;12.69;69.65;100026.38;10287009;28;20119;-58
2024/02/16 17:06:06;;;;;;;3.15;1.90;;;;;;;12.74;69.76;100041.81;10302554;28;20058;-58
2024/02/16 17:11:09;;;;;;;5.80;2.10;;;;;;;12.74;69.93;100047.88;10303019;28;20498;-59
2024/02/16 17:16:11;;;;;;;3.00;1.73;;;;;;;12.69;70.14;100055.22;10286125;28;20382;-58
2024/02/16 17:21:13;;;;;;;3.15;1.38;;;;;;;12.66;70.23;100065.09;10303263;28;20042;-58
2024/02/16 17:26:16;;;;;;;4.03;2.33;;;;;;;12.65;70.21;100063.41;10304354;28;20501;-58
2024/02/16 17:31:18;;;;;;;2.95;1.60;;;;;;;12.57;70.29;100066.53;10304395;28;20034;-58
2024/02/16 17:36:20;;;;;;;2.65;1.58;;;;;;;12.53;70.87;100070.31;10305348;28;21673;-58
2024/02/16 17:41:22;;;;;;;5.72;1.75;;;;;;;12.47;70.92;100070.69;10306774;28;20136;-58
2024/02/16 17:46:24;;;;;;;4.85;2.05;;;;;;;12.40;71.47;100073.81;10306115;28;20457;-58
2024/02/16 17:51:26;;;;;;;4.00;1.60;;;;;;;12.48;71.24;100080.25;10306394;28;20048;-58
2024/02/16 17:56:28;;;;;;;3.80;1.80;;;;;;;12.42;71.46;100085.03;10305742;28;20669;-58
2024/02/16 18:01:30;;;;;;;3.92;1.95;;;;;;;12.46;71.36;100091.75;10303871;28;20177;-58
2024/02/16 18:06:34;;;;;;;3.22;1.90;;;;;;;12.49;71.21;100094.19;10301665;28;20172;-59
2024/02/16 18:11:36;;;;;;;4.22;1.92;;;;;;;12.53;71.24;100107.03;10292578;28;20049;-58
2024/02/16 18:16:38;;;;;;;4.93;2.10;;;;;;;12.58;71.04;100110.19;10303454;28;20414;-67
2024/02/16 18:21:40;;;;;;;5.25;2.03;;;;;;;12.54;71.63;100119.19;10302522;28;20126;-65
2024/02/16 18:26:42;;;;;;;4.70;2.38;;;;;;;12.52;71.70;100121.06;10301800;28;20054;-67
2024/02/16 18:31:45;;;;;;;5.47;2.53;;;;;;;12.59;71.21;100130.25;10305465;28;20038;-64
2024/02/16 18:36:55;;;;;;;4.20;2.00;;;;;;;12.52;71.64;100131.56;10286405;28;20060;-64
2024/02/16 18:42:00;;;;;;;3.25;1.90;;;;;;;12.42;72.05;100135.72;10282794;28;20359;-65
2024/02/16 18:47:03;;;;;;;2.83;1.80;;;;;;;12.48;71.81;100145.81;10296970;28;20065;-65
2024/02/16 18:52:06;;;;;;;2.63;1.58;;;;;;;12.43;72.12;100153.16;10299980;28;20042;-65
2024/02/16 18:57:23;;;;;;;2.90;2.05;;;;;;;12.50;71.82;100149.19;10307641;28;20088;-65
2024/02/16 19:02:25;;;;;;;4.88;2.13;;;;;;;12.43;72.20;100153.16;10303258;28;20383;-65
2024/02/16 19:07:31;;;;;;;2.90;1.90;;;;;;;12.54;71.64;100161.16;10303867;28;20065;-65
2024/02/16 19:12:34;;;;;;;2.70;1.65;;;;;;;12.46;72.04;100168.69;10311830;28;20042;-66
2024/02/16 19:17:36;;;;;;;3.33;2.05;;;;;;;12.42;72.37;100172.44;10305601;28;20053;-64
2024/02/16 19:22:41;;;;;;;3.00;1.88;;;;;;;12.46;72.09;100181.81;10290960;28;20489;-65
2024/02/16 19:27:43;;;;;;;3.47;1.90;;;;;;;12.49;71.98;100192.13;10292899;28;20104;-65
2024/02/16 19:32:46;;;;;;;3.60;2.00;;;;;;;12.57;71.76;100197.72;10308361;28;20781;-65
2024/02/16 19:37:48;;;;;;;2.83;1.65;;;;;;;12.51;71.81;100208.59;10305507;28;20096;-65
2024/02/16 19:42:50;;;;;;;4.22;1.70;;;;;;;12.57;71.77;100221.31;10305084;28;20432;-65
2024/02/16 19:47:52;;;;;;;3.28;1.80;;;;;;;12.41;72.90;100244.22;10307935;28;20107;-65
2024/02/16 19:52:54;;;;;;;1.58;1.13;;;;;;;12.39;72.28;100240.00;10301444;28;20450;-66
2024/02/16 19:57:56;;;;;;;1.45;0.95;;;;;;;12.23;71.66;100260.22;10307565;28;20042;-65
2024/02/16 20:03:00;;;;;;;2.33;0.80;;;;;;;12.30;71.52;100266.78;10303795;28;20035;-65
2024/02/16 20:08:02;;;;;;;1.42;0.95;;;;;;;12.11;71.18;100282.75;10303773;28;20050;-65
2024/02/16 20:13:04;;;;;;;0.63;0.60;;;;;;;12.13;70.78;100294.00;10302143;28;20051;-65
2024/02/16 20:18:07;;;;;;;0.75;0.75;;;;;;;12.03;70.28;100305.97;10300896;28;20043;-65
2024/02/16 20:23:10;;;;;;;1.10;0.90;;;;;;;12.05;70.32;100319.81;10303867;28;20526;-65
2024/02/16 20:28:13;;;;;;;0.65;0.55;;;;;;;12.04;70.16;100333.88;10304511;28;20078;-65
2024/02/16 20:33:15;;;;;;;1.33;1.20;;;;;;;11.92;70.16;100339.84;10285324;28;20100;-65
2024/02/16 20:38:18;;;;;;;1.23;1.00;;;;;;;11.87;69.78;100347.13;10301516;28;20498;-65
2024/02/16 20:43:22;;;;;;;2.03;1.35;;;;;;;11.94;70.05;100356.34;10295625;28;20050;-65
2024/02/16 20:48:24;;;;;;;1.88;1.25;;;;;;;12.07;69.84;100363.38;10305838;28;20413;-65
2024/02/16 20:53:26;;;;;;;2.33;1.42;;;;;;;12.19;69.50;100377.56;10303641;28;20061;-65
2024/02/16 20:58:28;;;;;;;2.17;1.35;;;;;;;12.21;69.35;100378.31;10289003;28;20418;-65
2024/02/16 21:03:30;;;;;;;4.28;2.13;;;;;;;12.23;69.40;100386.09;10298306;28;20050;-65
2024/02/16 21:08:36;;;;;;;2.90;1.90;;;;;;;12.19;69.29;100397.69;10306083;28;20050;-65
2024/02/16 21:13:38;;;;;;;4.35;2.63;;;;;;;12.21;68.96;100399.28;10302496;28;20063;-65
2024/02/16 21:18:40;;;;;;;5.50;2.30;;;;;;;12.29;69.00;100410.22;10288311;28;20042;-65
2024/02/16 21:23:42;;;;;;;4.85;2.90;;;;;;;12.17;68.70;100425.78;10306407;28;20136;-65
2024/02/16 21:28:44;;;;;;;6.60;3.40;;;;;;;12.09;68.14;100431.44;10305763;28;20524;-65
2024/02/16 21:33:47;;;;;;;6.18;3.05;;;;;;;12.09;68.29;100437.53;10304028;28;20054;-65
2024/02/16 21:38:49;;;;;;;7.15;3.88;;;;;;;11.93;67.93;100451.59;10303690;28;20067;-64
2024/02/16 21:43:53;;;;;;;5.63;3.42;;;;;;;11.77;67.90;100462.13;10303377;28;20050;-65
2024/02/16 21:49:02;;;;;;;7.07;4.18;;;;;;;11.76;67.60;100472.69;10297820;28;20062;-65
2024/02/16 21:54:07;;;;;;;8.48;4.20;;;;;;;11.66;67.07;100480.22;10298854;28;20326;-65
2024/02/16 21:59:09;;;;;;;7.43;3.90;;;;;;;11.63;67.22;100490.03;10304084;28;20042;-65
2024/02/16 22:04:11;;;;;;;7.25;4.07;;;;;;;11.58;67.22;100494.69;10308028;28;20051;-65
2024/02/16 22:09:13;;;;;;;8.75;4.60;;;;;;;11.59;67.06;100510.31;10302106;28;20077;-65
2024/02/16 22:14:15;;;;;;;6.80;4.05;;;;;;;11.49;67.11;100518.75;10304907;28;20125;-64
2024/02/16 22:19:17;;;;;;;7.72;4.20;;;;;;;11.42;67.02;100520.03;10298210;28;20038;-64
2024/02/16 22:24:21;;;;;;;10.60;4.40;;;;;;;11.40;67.16;100532.34;10296446;28;20049;-65
2024/02/16 22:29:23;;;;;;;7.50;4.10;;;;;;;11.40;66.79;100534.97;10297058;28;20930;-64
2024/02/16 22:34:25;;;;;;;7.82;3.78;;;;;;;11.39;67.02;100539.34;10292454;28;20065;-65
2024/02/16 22:39:27;;;;;;;6.70;3.63;;;;;;;11.41;66.71;100534.88;10301611;28;20050;-65
2024/02/16 22:44:30;;;;;;;8.20;3.92;;;;;;;11.25;66.72;100547.94;10302713;28;20049;-64
2024/02/16 22:49:33;;;;;;;6.20;3.60;;;;;;;11.07;66.73;100555.91;10304284;28;20085;-65
2024/02/16 22:54:35;;;;;;;6.90;4.32;;;;;;;10.95;66.93;100562.56;10299529;28;22171;-65
2024/02/16 22:59:37;;;;;;;5.80;3.22;;;;;;;10.74;67.27;100574.16;10294965;28;20068;-65
2024/02/16 23:04:43;;;;;;;6.00;3.30;;;;;;;10.55;67.54;100578.59;10282559;28;20069;-64
2024/02/16 23:09:48;;;;;;;7.78;4.15;;;;;;;10.43;67.90;100595.75;10296607;28;20088;-66
2024/02/16 23:14:52;;;;;;;6.65;3.03;;;;;;;10.24;68.28;100600.16;10296809;28;20802;-66
2024/02/16 23:19:54;;;;;;;6.18;3.65;;;;;;;10.30;68.13;100610.31;10301742;28;20521;-66
2024/02/16 23:24:56;;;;;;;6.25;3.78;;;;;;;10.20;68.27;100610.81;10292891;28;20580;-63
2024/02/16 23:30:00;;;;;;;6.72;3.60;;;;;;;10.17;68.41;100616.22;10295566;28;20462;-66
2024/02/16 23:35:02;;;;;;;6.13;3.50;;;;;;;10.14;68.27;100632.03;10296004;28;20039;-65
2024/02/16 23:40:05;;;;;;;6.78;3.60;;;;;;;10.04;68.47;100649.06;10302320;28;20042;-65
2024/02/16 23:45:07;;;;;;;9.27;4.00;;;;;;;10.06;68.42;100629.78;10302971;28;20125;-65
2024/02/16 23:50:11;;;;;;;7.75;3.60;;;;;;;10.09;68.29;100632.25;10305345;28;20119;-65